Time;durP1;ratioP1;P1;durP2;ratioP2;P2;SDS_P1;SDS_P2;PMS_P1;PMS_P2;Temp;Humidity;BMP_temperature;BMP_pressure;BME280_temperature;BME280_humidity;BME280_pressure;Samples;Min_cycle;Max_cycle;Signal;HPM_P1;HPM_P2
2021/01/24 00:01:33;;;;;;;8.60;1.30;;;4.10;95.60;;;;;;5010750;28;20042;-78
2021/01/24 00:03:58;;;;;;;4.60;1.88;;;4.20;95.60;;;;;;5010930;28;20022;-80
2021/01/24 00:06:24;;;;;;;6.40;1.30;;;4.20;95.60;;;;;;5011063;28;20420;-79
2021/01/24 00:08:50;;;;;;;5.13;1.38;;;4.20;95.60;;;;;;5027202;28;20022;-80
2021/01/24 00:11:15;;;;;;;7.28;1.40;;;4.20;95.60;;;;;;5026840;28;20140;-79
2021/01/24 00:13:41;;;;;;;7.43;2.00;;;4.20;95.80;;;;;;5010751;28;20087;-80
2021/01/24 00:16:07;;;;;;;8.20;1.60;;;4.20;95.90;;;;;;5010751;28;20121;-79
2021/01/24 00:18:32;;;;;;;8.13;1.95;;;4.20;96.00;;;;;;5026899;28;20045;-80
2021/01/24 00:20:58;;;;;;;5.25;1.88;;;4.20;96.00;;;;;;5010703;28;20423;-80
2021/01/24 00:23:24;;;;;;;13.05;2.28;;;4.20;96.00;;;;;;5010549;28;20032;-79
2021/01/24 00:25:49;;;;;;;5.85;1.83;;;4.20;96.00;;;;;;5010399;28;20030;-78
2021/01/24 00:28:20;;;;;;;6.05;2.72;;;4.20;96.00;;;;;;5010303;28;20022;-80
2021/01/24 00:30:46;;;;;;;6.10;2.20;;;4.10;96.20;;;;;;5011204;28;20033;-83
2021/01/24 00:33:11;;;;;;;17.23;3.47;;;4.10;96.30;;;;;;5027994;28;20029;-78
2021/01/24 00:35:38;;;;;;;7.50;2.42;;;4.10;96.40;;;;;;5028008;28;20030;-80
2021/01/24 00:38:04;;;;;;;7.00;1.95;;;4.10;96.30;;;;;;5026829;28;20515;-82
2021/01/24 00:40:29;;;;;;;8.73;2.80;;;4.10;96.40;;;;;;5027899;28;20463;-79
2021/01/24 00:42:55;;;;;;;4.88;2.35;;;4.10;96.50;;;;;;5026695;28;20051;-81
2021/01/24 00:45:21;;;;;;;5.78;2.17;;;4.10;96.60;;;;;;5026763;28;20468;-82
2021/01/24 00:47:46;;;;;;;5.40;2.40;;;4.10;96.70;;;;;;5010204;28;20044;-82
2021/01/24 00:50:12;;;;;;;5.15;2.22;;;4.10;96.80;;;;;;5026565;28;20030;-79
2021/01/24 00:52:38;;;;;;;7.20;2.75;;;4.10;96.90;;;;;;5026577;28;20034;-81
2021/01/24 00:55:04;;;;;;;4.70;2.75;;;4.10;97.00;;;;;;5010387;28;20108;-79
2021/01/24 00:57:30;;;;;;;4.75;2.30;;;4.20;96.90;;;;;;5027793;28;20116;-80
2021/01/24 00:59:55;;;;;;;6.65;2.63;;;4.20;96.80;;;;;;5010062;28;20183;-80
2021/01/24 01:02:21;;;;;;;7.80;2.55;;;4.20;96.80;;;;;;5026566;28;20029;-82
2021/01/24 01:04:47;;;;;;;9.63;3.15;;;4.10;96.90;;;;;;4993557;28;20033;-79
2021/01/24 01:07:12;;;;;;;6.93;2.40;;;4.10;97.00;;;;;;4993912;28;20361;-81
2021/01/24 01:09:38;;;;;;;10.70;2.70;;;4.00;97.00;;;;;;5027548;28;20040;-80
2021/01/24 01:12:05;;;;;;;11.00;4.18;;;4.00;97.10;;;;;;5026433;28;20132;-81
2021/01/24 01:14:31;;;;;;;9.95;2.92;;;3.90;97.20;;;;;;5010061;28;20030;-81
2021/01/24 01:16:57;;;;;;;11.18;3.53;;;3.90;97.30;;;;;;5026478;28;20411;-86
2021/01/24 01:19:23;;;;;;;6.68;4.22;;;3.90;97.30;;;;;;5027298;28;20053;-80
2021/01/24 01:21:48;;;;;;;7.40;3.10;;;4.00;97.40;;;;;;5009857;28;20384;-79
2021/01/24 01:24:14;;;;;;;7.32;3.40;;;4.00;97.40;;;;;;5027521;28;20222;-80
2021/01/24 01:26:40;;;;;;;8.95;3.80;;;4.00;97.40;;;;;;5010899;28;20100;-81
2021/01/24 01:29:05;;;;;;;9.85;3.67;;;4.00;97.40;;;;;;5013959;28;20034;-82
2021/01/24 01:31:31;;;;;;;6.82;3.03;;;4.00;97.40;;;;;;5031808;28;20029;-80
2021/01/24 01:33:57;;;;;;;10.70;3.65;;;4.00;97.40;;;;;;5031347;28;20536;-78
2021/01/24 01:36:23;;;;;;;11.45;4.13;;;4.00;97.50;;;;;;5030087;28;20431;-80
2021/01/24 01:38:48;;;;;;;8.85;3.45;;;4.00;97.50;;;;;;5013398;28;20041;-81
2021/01/24 01:41:14;;;;;;;9.40;3.70;;;4.00;97.50;;;;;;4997051;28;20030;-79
2021/01/24 01:43:40;;;;;;;8.98;4.07;;;4.00;97.60;;;;;;5031334;28;20092;-81
2021/01/24 01:46:05;;;;;;;6.03;3.20;;;4.00;97.60;;;;;;5013414;28;20063;-79
2021/01/24 01:48:32;;;;;;;11.85;4.18;;;4.00;97.70;;;;;;4996943;28;20031;-81
2021/01/24 01:50:58;;;;;;;10.32;4.65;;;4.00;97.70;;;;;;5031276;28;20026;-80
2021/01/24 01:53:25;;;;;;;11.13;3.60;;;3.90;97.70;;;;;;5029753;28;20113;-82
2021/01/24 01:55:50;;;;;;;9.38;3.53;;;3.90;98.10;;;;;;5029633;28;20463;-80
2021/01/24 01:58:16;;;;;;;14.27;3.40;;;3.90;98.00;;;;;;5013096;28;20060;-81
2021/01/24 02:00:42;;;;;;;7.78;2.72;;;4.00;98.10;;;;;;5012984;28;20046;-83
2021/01/24 02:03:14;;;;;;;13.15;3.80;;;4.10;98.10;;;;;;5013364;28;20021;-80
2021/01/24 02:06:09;;;;;;;9.75;3.33;;;4.10;98.10;;;;;;5029565;28;20083;-83
2021/01/24 02:09:12;;;;;;;12.98;3.40;;;4.20;98.10;;;;;;5029412;28;20026;-82
2021/01/24 02:11:48;;;;;;;6.20;2.80;;;4.20;98.00;;;;;;5025630;28;20044;-80
2021/01/24 02:14:30;;;;;;;9.32;2.65;;;4.30;97.90;;;;;;5029384;28;20113;-79
2021/01/24 02:17:00;;;;;;;10.55;3.33;;;4.30;98.00;;;;;;5029210;28;20028;-82
2021/01/24 02:20:03;;;;;;;8.98;3.08;;;4.30;98.00;;;;;;5029010;28;20041;-82
2021/01/24 02:22:32;;;;;;;7.90;3.00;;;4.30;98.00;;;;;;5030562;28;20033;-82
2021/01/24 02:25:13;;;;;;;9.35;3.40;;;4.30;97.90;;;;;;5029211;28;20427;-79
2021/01/24 02:28:06;;;;;;;7.30;2.60;;;4.30;98.00;;;;;;5029558;28;20123;-83
2021/01/24 02:30:35;;;;;;;5.00;2.30;;;4.30;98.00;;;;;;5029017;28;20072;-81
2021/01/24 02:33:10;;;;;;;8.27;3.05;;;4.20;97.80;;;;;;5030419;28;20025;-79
2021/01/24 02:35:40;;;;;;;7.93;2.45;;;4.20;97.90;;;;;;5029163;28;20423;-81
2021/01/24 02:38:08;;;;;;;6.03;2.67;;;4.20;97.90;;;;;;5028010;28;20476;-81
2021/01/24 02:40:37;;;;;;;9.38;3.25;;;4.10;97.90;;;;;;5028819;28;20031;-79
2021/01/24 02:43:05;;;;;;;5.50;2.33;;;4.10;98.00;;;;;;5030120;28;20029;-79
2021/01/24 02:45:36;;;;;;;8.98;3.17;;;4.10;98.00;;;;;;5028897;28;20140;-78
2021/01/24 02:48:04;;;;;;;6.65;2.65;;;4.10;98.00;;;;;;5028652;28;20116;-83
2021/01/24 02:50:30;;;;;;;6.40;2.60;;;3.90;97.90;;;;;;5012559;28;20031;-81
2021/01/24 02:53:00;;;;;;;8.50;3.38;;;3.90;98.00;;;;;;5030038;28;20030;-82
2021/01/24 02:55:29;;;;;;;6.82;2.53;;;3.80;98.10;;;;;;5012338;28;20094;-81
2021/01/24 02:57:56;;;;;;;8.03;3.13;;;3.70;98.10;;;;;;5012619;28;20045;-83
2021/01/24 03:00:23;;;;;;;8.90;3.08;;;3.60;98.10;;;;;;5029599;28;20037;-80
2021/01/24 03:02:49;;;;;;;4.75;2.60;;;3.60;98.10;;;;;;5028536;28;20033;-79
2021/01/24 03:05:15;;;;;;;8.73;2.90;;;3.50;98.10;;;;;;5029742;28;20396;-79
2021/01/24 03:07:42;;;;;;;9.25;3.85;;;3.40;98.20;;;;;;5011903;28;20038;-83
2021/01/24 03:10:10;;;;;;;10.02;3.60;;;3.30;98.20;;;;;;5028269;28;20049;-81
2021/01/24 03:13:02;;;;;;;11.65;3.63;;;3.20;98.10;;;;;;5028286;28;20028;-81
2021/01/24 03:15:29;;;;;;;8.57;3.30;;;3.20;98.20;;;;;;5028278;28;20030;-80
2021/01/24 03:17:58;;;;;;;9.27;3.90;;;3.10;98.20;;;;;;5028254;28;20034;-81
2021/01/24 03:20:26;;;;;;;6.55;4.30;;;3.00;98.20;;;;;;5011739;28;20496;-81
2021/01/24 03:22:53;;;;;;;10.38;5.18;;;2.90;98.20;;;;;;5029613;28;20025;-82
2021/01/24 03:25:20;;;;;;;11.35;5.63;;;2.80;98.30;;;;;;5011987;28;20048;-84
2021/01/24 03:27:47;;;;;;;15.50;6.07;;;2.80;98.50;;;;;;5028193;28;20103;-80
2021/01/24 03:30:13;;;;;;;11.75;5.13;;;2.70;98.60;;;;;;5011297;28;20040;-82
2021/01/24 03:32:39;;;;;;;14.68;5.60;;;2.70;98.70;;;;;;5011641;28;20026;-81
2021/01/24 03:35:06;;;;;;;14.02;7.03;;;2.80;98.90;;;;;;5029186;28;20041;-80
2021/01/24 03:37:32;;;;;;;16.48;7.07;;;2.80;99.00;;;;;;5029051;28;20526;-81
2021/01/24 03:39:58;;;;;;;11.65;6.95;;;2.90;99.20;;;;;;5027602;28;20029;-79
2021/01/24 03:42:23;;;;;;;13.70;7.95;;;3.00;99.30;;;;;;5011356;28;20025;-79
2021/01/24 03:44:49;;;;;;;11.50;7.75;;;3.10;99.30;;;;;;4994822;28;20029;-81
2021/01/24 03:47:15;;;;;;;16.50;7.40;;;3.20;99.40;;;;;;5028858;28;20040;-81
2021/01/24 03:49:41;;;;;;;13.00;6.93;;;3.20;99.20;;;;;;5010873;28;20061;-79
2021/01/24 03:52:07;;;;;;;8.20;4.18;;;3.30;99.20;;;;;;5011058;28;20502;-81
2021/01/24 03:54:32;;;;;;;10.18;4.28;;;3.20;99.10;;;;;;5027374;28;20029;-80
2021/01/24 03:56:58;;;;;;;11.80;4.53;;;3.20;99.10;;;;;;5011071;28;20030;-83
2021/01/24 03:59:24;;;;;;;9.88;5.00;;;3.20;99.20;;;;;;5010833;28;20045;-80
2021/01/24 04:01:50;;;;;;;9.30;4.85;;;3.20;99.20;;;;;;5027115;28;20033;-80
2021/01/24 04:04:16;;;;;;;8.02;4.97;;;3.20;99.30;;;;;;5027199;28;20029;-81
2021/01/24 04:06:41;;;;;;;10.68;5.20;;;3.30;99.40;;;;;;5028549;28;20049;-80
2021/01/24 04:09:07;;;;;;;10.88;6.43;;;3.30;99.40;;;;;;5010604;28;20053;-80
2021/01/24 04:11:33;;;;;;;14.75;6.75;;;3.40;99.40;;;;;;5027135;28;20108;-81
2021/01/24 04:13:59;;;;;;;9.98;6.72;;;3.40;99.30;;;;;;5027323;28;20036;-82
2021/01/24 04:16:25;;;;;;;15.00;8.07;;;3.50;99.20;;;;;;5027164;28;20391;-82
2021/01/24 04:18:50;;;;;;;14.77;7.40;;;3.50;99.00;;;;;;5028164;28;20045;-80
2021/01/24 04:21:16;;;;;;;12.45;6.50;;;3.50;98.90;;;;;;5027061;28;20056;-82
2021/01/24 04:23:42;;;;;;;14.77;7.30;;;3.40;98.70;;;;;;5010685;28;20393;-81
2021/01/24 04:26:08;;;;;;;13.77;7.40;;;3.30;98.60;;;;;;5028165;28;20105;-80
2021/01/24 04:28:34;;;;;;;18.83;6.80;;;3.10;98.60;;;;;;5026964;28;20033;-81
2021/01/24 04:31:00;;;;;;;12.63;5.75;;;3.10;98.60;;;;;;5026977;28;20457;-80
2021/01/24 04:33:25;;;;;;;9.77;5.70;;;2.90;98.70;;;;;;5010574;28;20029;-82
2021/01/24 04:35:51;;;;;;;11.75;5.88;;;2.80;98.70;;;;;;5010605;28;20026;-82
2021/01/24 04:38:17;;;;;;;9.15;5.40;;;2.80;98.70;;;;;;5026799;28;20025;-81
2021/01/24 04:40:43;;;;;;;12.10;6.55;;;2.70;98.70;;;;;;5027011;28;20048;-82
2021/01/24 04:43:10;;;;;;;59.53;8.90;;;2.60;98.70;;;;;;5010337;28;20380;-82
2021/01/24 04:45:35;;;;;;;70.38;7.90;;;2.40;98.80;;;;;;5027973;28;20109;-81
2021/01/24 04:48:02;;;;;;;48.08;8.15;;;2.30;98.90;;;;;;5010415;28;20137;-81
2021/01/24 04:50:28;;;;;;;82.90;8.40;;;2.10;99.10;;;;;;5026616;28;20033;-79
2021/01/24 04:52:56;;;;;;;191.00;13.27;;;2.00;99.20;;;;;;5010281;28;20037;-80
2021/01/24 04:55:22;;;;;;;11.50;6.30;;;2.00;99.30;;;;;;5026658;28;20033;-78
2021/01/24 04:57:48;;;;;;;11.70;6.65;;;2.00;99.60;;;;;;5026840;28;20026;-80
2021/01/24 05:00:16;;;;;;;15.82;7.68;;;1.90;99.40;;;;;;5026623;28;20104;-82
2021/01/24 05:02:42;;;;;;;13.68;6.22;;;2.00;99.40;;;;;;5029505;28;20029;-78
2021/01/24 05:05:09;;;;;;;13.50;7.07;;;2.00;99.40;;;;;;4998139;28;20384;-80
2021/01/24 05:07:35;;;;;;;10.90;6.53;;;2.00;99.50;;;;;;5030708;28;20036;-80
2021/01/24 05:10:02;;;;;;;16.63;8.13;;;2.10;99.60;;;;;;5030477;28;20040;-81
2021/01/24 05:12:29;;;;;;;13.75;6.95;;;2.10;99.70;;;;;;5030663;28;20029;-83
2021/01/24 05:14:58;;;;;;;10.80;6.47;;;2.20;99.70;;;;;;5031838;28;20034;-79
2021/01/24 05:17:24;;;;;;;10.17;6.53;;;2.30;99.60;;;;;;5030531;28;20494;-81
2021/01/24 05:19:50;;;;;;;8.80;6.13;;;2.30;99.50;;;;;;5013770;28;20296;-79
2021/01/24 05:22:16;;;;;;;11.05;6.47;;;2.30;99.50;;;;;;5031713;28;20021;-81
2021/01/24 05:24:42;;;;;;;12.32;6.40;;;2.30;99.50;;;;;;5014051;28;20037;-79
2021/01/24 05:27:10;;;;;;;12.60;7.72;;;2.20;99.60;;;;;;5013879;28;20388;-80
2021/01/24 05:29:40;;;;;;;15.73;6.85;;;2.30;99.70;;;;;;5030259;28;20060;-78
2021/01/24 05:32:05;;;;;;;12.63;7.38;;;2.30;99.70;;;;;;5031385;28;20048;-81
2021/01/24 05:34:32;;;;;;;14.30;7.50;;;2.40;99.60;;;;;;5030186;28;20029;-79
2021/01/24 05:36:59;;;;;;;17.88;8.80;;;2.40;99.50;;;;;;5030276;28;20033;-82
2021/01/24 05:39:26;;;;;;;14.10;7.63;;;2.30;99.50;;;;;;5013649;28;20107;-78
2021/01/24 05:41:55;;;;;;;11.18;7.45;;;2.30;99.50;;;;;;5030144;28;20486;-80
2021/01/24 05:44:21;;;;;;;13.98;7.68;;;2.30;99.60;;;;;;5030039;28;20029;-81
2021/01/24 05:46:48;;;;;;;12.43;7.63;;;2.30;99.70;;;;;;5031351;28;20026;-80
2021/01/24 05:49:22;;;;;;;10.30;7.03;;;2.40;99.90;;;;;;4997231;28;20097;-81
2021/01/24 05:52:02;;;;;;;12.82;7.55;;;2.40;99.90;;;;;;5031115;28;20484;-78
2021/01/24 05:54:42;;;;;;;9.30;6.47;;;2.50;99.90;;;;;;5031054;28;20072;-81
2021/01/24 05:57:11;;;;;;;15.50;6.90;;;2.60;99.90;;;;;;5029759;28;20049;-83
2021/01/24 06:00:00;;;;;;;13.05;7.45;;;2.70;99.90;;;;;;5029441;28;20018;-79
2021/01/24 06:02:27;;;;;;;10.40;6.97;;;2.80;99.90;;;;;;5030855;28;20548;-80
2021/01/24 06:04:55;;;;;;;9.35;7.35;;;2.90;99.90;;;;;;5030938;28;20487;-83
2021/01/24 06:07:21;;;;;;;11.43;7.13;;;3.00;99.90;;;;;;5029543;28;20121;-79
2021/01/24 06:09:47;;;;;;;14.63;8.18;;;3.00;99.90;;;;;;5029411;28;20022;-78
2021/01/24 06:12:15;;;;;;;13.57;7.70;;;3.10;99.90;;;;;;5030419;28;20433;-79
2021/01/24 06:14:46;;;;;;;13.18;7.82;;;3.10;99.90;;;;;;5031149;28;20096;-78
2021/01/24 06:17:26;;;;;;;12.40;8.05;;;3.10;99.90;;;;;;5029261;28;20028;-82
2021/01/24 06:19:59;;;;;;;16.67;8.18;;;3.10;99.90;;;;;;5030419;28;20385;-78
2021/01/24 06:22:48;;;;;;;14.02;8.27;;;3.10;99.90;;;;;;5030562;28;20084;-81
2021/01/24 06:25:28;;;;;;;13.13;8.15;;;3.10;99.90;;;;;;5028887;28;20115;-80
2021/01/24 06:27:59;;;;;;;11.93;7.50;;;3.20;99.90;;;;;;5029292;28;20035;-84
2021/01/24 06:30:27;;;;;;;11.25;7.07;;;3.30;99.90;;;;;;5030291;28;20061;-78
2021/01/24 06:32:53;;;;;;;9.70;7.18;;;3.30;99.90;;;;;;5028947;28;20021;-79
2021/01/24 06:35:24;;;;;;;11.30;7.07;;;3.40;99.90;;;;;;5012532;28;20051;-81
2021/01/24 06:38:08;;;;;;;12.25;8.23;;;3.50;99.90;;;;;;5030357;28;20077;-82
2021/01/24 06:40:43;;;;;;;12.48;7.53;;;3.60;99.90;;;;;;5028843;28;20045;-81
2021/01/24 06:43:08;;;;;;;12.35;7.43;;;3.50;99.90;;;;;;5030305;28;20087;-80
2021/01/24 06:45:39;;;;;;;13.20;7.53;;;3.50;99.90;;;;;;5030382;28;20060;-79
2021/01/24 06:48:05;;;;;;;14.30;7.72;;;3.40;99.90;;;;;;5030076;28;20036;-81
2021/01/24 06:50:44;;;;;;;16.50;8.82;;;3.40;99.90;;;;;;5030008;28;20056;-80
2021/01/24 06:53:11;;;;;;;10.30;6.40;;;3.40;99.90;;;;;;5030131;28;20100;-79
2021/01/24 06:55:38;;;;;;;15.73;7.35;;;3.40;99.90;;;;;;5028738;28;20384;-83
2021/01/24 06:58:27;;;;;;;15.15;7.60;;;3.50;99.90;;;;;;5030012;28;20087;-80
2021/01/24 07:01:31;;;;;;;13.18;6.68;;;3.50;99.90;;;;;;5028591;28;20655;-79
2021/01/24 07:04:23;;;;;;;11.68;5.97;;;3.50;99.90;;;;;;5028561;28;20228;-80
2021/01/24 07:06:54;;;;;;;13.20;6.63;;;3.40;99.80;;;;;;5029877;28;20052;-79
2021/01/24 07:09:26;;;;;;;9.98;6.45;;;3.30;99.80;;;;;;5029679;28;20033;-77
2021/01/24 07:11:54;;;;;;;13.93;6.60;;;3.30;99.90;;;;;;5029840;28;20025;-83
2021/01/24 07:14:35;;;;;;;10.68;6.55;;;3.40;99.90;;;;;;5028296;28;20022;-82
2021/01/24 07:17:09;;;;;;;10.75;6.63;;;3.40;99.90;;;;;;5029689;28;20018;-81
2021/01/24 07:19:55;;;;;;;11.30;6.20;;;3.40;99.80;;;;;;5027838;28;20057;-81
2021/01/24 07:22:25;;;;;;;10.32;6.65;;;3.40;99.90;;;;;;5011235;28;20437;-81
2021/01/24 07:24:53;;;;;;;10.20;6.32;;;3.30;99.90;;;;;;5027601;28;20388;-78
2021/01/24 07:27:25;;;;;;;9.75;6.57;;;3.40;99.90;;;;;;5028115;28;20028;-81
2021/01/24 07:29:51;;;;;;;10.00;5.90;;;3.40;99.90;;;;;;5027882;28;20036;-82
2021/01/24 07:32:19;;;;;;;9.48;6.22;;;3.50;99.90;;;;;;5028109;28;20030;-81
2021/01/24 07:34:46;;;;;;;10.60;6.85;;;3.50;99.90;;;;;;5029312;28;20496;-79
2021/01/24 07:37:15;;;;;;;11.07;6.95;;;3.60;99.90;;;;;;5027946;28;20167;-82
2021/01/24 07:39:42;;;;;;;8.68;5.65;;;3.60;99.90;;;;;;5027926;28;20053;-82
2021/01/24 07:42:09;;;;;;;11.57;6.57;;;3.70;99.90;;;;;;5011616;28;20027;-80
2021/01/24 07:44:35;;;;;;;11.02;7.55;;;3.80;99.90;;;;;;5028977;28;20040;-80
2021/01/24 07:47:01;;;;;;;12.18;6.20;;;3.80;99.90;;;;;;5027758;28;20383;-80
2021/01/24 07:49:26;;;;;;;12.52;7.20;;;3.80;99.90;;;;;;5027659;28;20116;-80
2021/01/24 07:51:53;;;;;;;10.65;6.43;;;3.90;99.90;;;;;;5011269;28;20025;-79
2021/01/24 07:54:19;;;;;;;9.85;6.10;;;3.90;99.90;;;;;;5028884;28;20022;-84
2021/01/24 07:56:45;;;;;;;8.43;6.28;;;3.90;99.90;;;;;;5028916;28;20064;-81
2021/01/24 07:59:11;;;;;;;9.20;6.40;;;4.00;99.90;;;;;;5027636;28;20026;-82
2021/01/24 08:01:37;;;;;;;8.52;6.43;;;4.00;99.80;;;;;;5028809;28;20381;-80
2021/01/24 08:04:06;;;;;;;8.30;6.07;;;4.00;99.70;;;;;;5028794;28;20080;-80
2021/01/24 08:06:35;;;;;;;7.77;5.73;;;4.00;99.70;;;;;;5027375;28;20025;-81
2021/01/24 08:09:06;;;;;;;9.30;6.85;;;4.00;99.70;;;;;;5028408;28;20030;-81
2021/01/24 08:11:32;;;;;;;9.25;6.80;;;4.00;99.70;;;;;;5028517;28;20033;-84
2021/01/24 08:13:58;;;;;;;8.82;6.72;;;4.00;99.60;;;;;;5028575;28;20372;-80
2021/01/24 08:16:32;;;;;;;10.35;7.60;;;4.00;99.60;;;;;;5028602;28;20489;-80
2021/01/24 08:19:00;;;;;;;11.48;7.53;;;4.00;99.60;;;;;;5028078;28;20049;-81
2021/01/24 08:21:27;;;;;;;16.58;11.40;;;4.00;99.60;;;;;;5027023;28;20095;-82
2021/01/24 08:23:54;;;;;;;12.13;9.27;;;4.00;99.60;;;;;;5027153;28;20056;-80
2021/01/24 08:26:21;;;;;;;11.73;9.13;;;4.00;99.60;;;;;;5026971;28;20025;-79
2021/01/24 08:28:48;;;;;;;11.88;8.68;;;4.00;99.60;;;;;;5010869;28;20228;-81
2021/01/24 08:31:21;;;;;;;15.50;11.07;;;4.10;99.60;;;;;;5010317;28;20067;-83
2021/01/24 08:33:52;;;;;;;13.88;9.80;;;4.00;99.60;;;;;;5028036;28;20017;-80
2021/01/24 08:36:20;;;;;;;26.48;13.05;;;4.00;99.70;;;;;;5028413;28;20392;-80
2021/01/24 08:38:47;;;;;;;29.60;15.20;;;3.90;99.70;;;;;;5026826;28;20120;-80
2021/01/24 08:41:14;;;;;;;28.52;14.00;;;3.80;99.70;;;;;;5026771;28;20033;-79
2021/01/24 08:43:40;;;;;;;33.40;15.60;;;3.70;99.70;;;;;;5026730;28;20036;-79
2021/01/24 08:46:26;;;;;;;33.65;15.60;;;3.60;99.70;;;;;;5026767;28;20395;-81
2021/01/24 08:49:21;;;;;;;31.98;15.50;;;3.50;99.80;;;;;;5027807;28;20026;-84
2021/01/24 08:51:54;;;;;;;34.17;14.73;;;3.40;99.90;;;;;;5022892;28;20479;-81
2021/01/24 08:54:26;;;;;;;29.23;14.95;;;3.40;99.90;;;;;;5026310;28;20037;-83
2021/01/24 08:57:12;;;;;;;29.58;15.43;;;3.40;99.90;;;;;;5027639;28;20045;-81
2021/01/24 08:59:38;;;;;;;27.40;14.30;;;3.40;99.90;;;;;;5027638;28;20017;-80
2021/01/24 09:02:05;;;;;;;27.83;13.57;;;3.40;99.90;;;;;;5027767;28;20380;-81
2021/01/24 09:04:33;;;;;;;23.95;12.48;;;3.40;99.90;;;;;;5026179;28;20396;-80
2021/01/24 09:07:02;;;;;;;22.33;12.95;;;3.40;99.90;;;;;;5027477;28;20022;-80
2021/01/24 09:09:29;;;;;;;23.98;11.45;;;3.40;99.90;;;;;;5026307;28;20025;-80
2021/01/24 09:11:56;;;;;;;17.42;10.70;;;3.50;99.90;;;;;;5028078;28;20038;-81
2021/01/24 09:14:22;;;;;;;19.45;11.25;;;3.50;99.90;;;;;;5026342;28;20026;-81
2021/01/24 09:17:02;;;;;;;19.65;10.48;;;3.60;99.90;;;;;;5027181;28;20029;-81
2021/01/24 09:19:28;;;;;;;19.20;10.75;;;3.60;99.90;;;;;;5027392;28;20137;-81
2021/01/24 09:21:54;;;;;;;22.48;10.60;;;3.60;99.80;;;;;;5026559;28;20073;-77
2021/01/24 09:24:20;;;;;;;18.13;10.80;;;3.60;99.80;;;;;;5027494;28;20159;-80
2021/01/24 09:26:46;;;;;;;16.48;10.10;;;3.60;99.90;;;;;;5027740;28;20025;-80
2021/01/24 09:29:13;;;;;;;17.70;10.35;;;3.60;99.90;;;;;;5009682;28;20557;-82
2021/01/24 09:31:39;;;;;;;17.60;10.23;;;3.50;99.90;;;;;;5009513;28;20112;-79
2021/01/24 09:34:05;;;;;;;22.15;10.63;;;3.50;99.90;;;;;;5025867;28;20148;-81
2021/01/24 09:36:31;;;;;;;23.20;11.85;;;3.50;99.90;;;;;;5009717;28;20033;-81
2021/01/24 09:38:56;;;;;;;23.27;12.13;;;3.50;99.90;;;;;;5009714;28;20025;-81
2021/01/24 09:41:22;;;;;;;19.23;11.55;;;3.50;99.90;;;;;;5026150;28;20068;-82
2021/01/24 09:43:47;;;;;;;22.45;11.85;;;3.50;99.90;;;;;;5026325;28;20044;-80
2021/01/24 09:46:13;;;;;;;22.63;13.25;;;3.50;99.90;;;;;;5026375;28;20112;-81
2021/01/24 09:48:39;;;;;;;22.30;12.57;;;3.50;99.90;;;;;;5029939;28;20029;-83
2021/01/24 09:51:08;;;;;;;19.88;13.13;;;3.60;99.90;;;;;;5029879;28;20076;-81
2021/01/24 09:53:37;;;;;;;17.33;10.55;;;3.80;99.90;;;;;;5013947;28;20041;-83
2021/01/24 09:56:06;;;;;;;19.15;10.75;;;3.90;99.90;;;;;;5029375;28;20427;-80
2021/01/24 09:58:33;;;;;;;19.05;10.90;;;3.90;99.90;;;;;;5029978;28;20554;-79
2021/01/24 10:00:59;;;;;;;20.80;11.95;;;3.90;99.90;;;;;;5031315;28;20369;-78
2021/01/24 10:03:25;;;;;;;22.80;12.30;;;4.00;99.90;;;;;;5029163;28;20121;-80
2021/01/24 10:05:51;;;;;;;21.30;12.25;;;4.10;99.90;;;;;;5030603;28;20036;-79
2021/01/24 10:08:18;;;;;;;19.98;11.23;;;4.20;99.90;;;;;;5030594;28;20070;-82
2021/01/24 10:10:46;;;;;;;24.27;13.45;;;4.30;99.90;;;;;;5029053;28;20072;-80
2021/01/24 10:13:15;;;;;;;23.45;13.50;;;4.40;99.90;;;;;;5030498;28;20038;-80
2021/01/24 10:15:41;;;;;;;20.95;13.55;;;4.50;99.90;;;;;;5029353;28;20029;-82
2021/01/24 10:18:07;;;;;;;22.33;12.10;;;4.50;99.90;;;;;;5030672;28;20415;-83
2021/01/24 10:20:34;;;;;;;21.25;12.95;;;4.60;99.90;;;;;;5029051;28;20042;-82
2021/01/24 10:22:59;;;;;;;19.52;12.15;;;4.60;99.80;;;;;;5012882;28;20482;-80
2021/01/24 10:25:25;;;;;;;19.55;12.73;;;4.70;99.80;;;;;;5012755;28;20113;-82
2021/01/24 10:27:51;;;;;;;21.00;12.98;;;4.70;99.60;;;;;;5028743;28;20037;-80
2021/01/24 10:30:19;;;;;;;21.10;13.55;;;4.60;99.50;;;;;;5011624;28;20029;-82
2021/01/24 10:32:44;;;;;;;24.67;15.35;;;4.60;99.50;;;;;;5029895;28;20029;-81
2021/01/24 10:35:10;;;;;;;32.28;19.38;;;4.60;99.50;;;;;;5030667;28;20434;-81
2021/01/24 10:37:36;;;;;;;33.28;19.05;;;4.60;99.60;;;;;;5029438;28;20030;-81
2021/01/24 10:40:04;;;;;;;27.58;17.73;;;4.60;99.70;;;;;;5013325;28;20036;-79
2021/01/24 10:42:30;;;;;;;27.83;18.55;;;4.70;99.60;;;;;;5012602;28;20037;-80
2021/01/24 10:44:57;;;;;;;22.73;15.00;;;4.70;99.50;;;;;;5030224;28;20031;-81
2021/01/24 10:47:24;;;;;;;26.30;15.80;;;4.70;99.30;;;;;;5029923;28;20029;-83
2021/01/24 10:49:49;;;;;;;24.27;14.80;;;4.60;99.20;;;;;;5028216;28;20384;-83
2021/01/24 10:52:15;;;;;;;22.38;14.15;;;4.50;99.20;;;;;;5028786;28;20026;-82
2021/01/24 10:54:41;;;;;;;26.10;15.30;;;4.50;99.40;;;;;;5028735;28;20084;-81
2021/01/24 10:57:06;;;;;;;25.27;14.27;;;4.40;99.30;;;;;;5011774;28;20439;-83
2021/01/24 10:59:32;;;;;;;23.75;13.02;;;4.40;99.40;;;;;;5010812;28;20113;-81
2021/01/24 11:01:58;;;;;;;24.88;13.82;;;4.40;99.40;;;;;;5030481;28;20340;-80
2021/01/24 11:04:24;;;;;;;19.13;12.15;;;4.40;99.30;;;;;;5028159;28;20037;-80
2021/01/24 11:06:50;;;;;;;21.30;12.48;;;4.30;99.20;;;;;;5027833;28;20092;-81
2021/01/24 11:09:15;;;;;;;25.33;14.85;;;4.20;99.40;;;;;;5029058;28;20038;-80
2021/01/24 11:11:41;;;;;;;24.40;13.55;;;4.20;99.50;;;;;;5028831;28;20037;-80
2021/01/24 11:14:07;;;;;;;19.67;12.88;;;4.20;99.60;;;;;;5029126;28;20579;-80
2021/01/24 11:16:32;;;;;;;19.02;11.65;;;4.30;99.50;;;;;;5011562;28;20384;-81
2021/01/24 11:18:58;;;;;;;20.48;10.77;;;4.30;99.50;;;;;;5011120;28;20489;-81
2021/01/24 11:21:25;;;;;;;23.50;12.05;;;4.30;99.40;;;;;;5027815;28;20470;-81
2021/01/24 11:23:51;;;;;;;16.45;9.98;;;4.30;99.40;;;;;;5027519;28;20384;-79
2021/01/24 11:26:17;;;;;;;19.05;12.45;;;4.30;99.50;;;;;;5011476;28;20029;-81
2021/01/24 11:28:44;;;;;;;20.60;12.40;;;4.30;99.70;;;;;;5011847;28;20030;-91
2021/01/24 11:31:12;;;;;;;25.33;16.05;;;4.40;99.90;;;;;;5027449;28;20550;-87
2021/01/24 11:33:41;;;;;;;29.17;14.90;;;4.60;99.90;;;;;;5028222;28;20481;-87
2021/01/24 11:36:35;;;;;;;17.63;12.15;;;4.80;99.90;;;;;;5029138;28;20435;-88
2021/01/24 11:39:10;;;;;;;19.25;12.55;;;4.90;99.70;;;;;;5029052;28;20033;-84
2021/01/24 11:41:38;;;;;;;21.15;13.20;;;5.10;99.60;;;;;;5029116;28;20032;-86
2021/01/24 11:44:59;;;;;;;20.58;13.07;;;5.30;99.60;;;;;;5027685;28;20037;-85
2021/01/24 11:47:28;;;;;;;20.70;12.88;;;5.40;99.40;;;;;;5006659;28;20041;-83
2021/01/24 11:50:03;;;;;;;26.40;16.52;;;5.50;99.20;;;;;;4990333;28;20497;-86
2021/01/24 11:52:37;;;;;;;19.80;12.65;;;5.60;99.20;;;;;;4991825;28;20065;-85
2021/01/24 11:55:06;;;;;;;18.15;11.98;;;5.70;99.00;;;;;;5014485;28;20100;-89
2021/01/24 11:57:52;;;;;;;18.87;12.43;;;5.70;99.00;;;;;;5010566;28;20037;-86
2021/01/24 12:00:26;;;;;;;18.85;11.63;;;5.80;99.00;;;;;;5013284;28;20044;-87
2021/01/24 12:03:04;;;;;;;16.50;11.20;;;5.80;98.80;;;;;;5028741;28;20071;-85
2021/01/24 12:05:30;;;;;;;15.43;10.88;;;5.70;98.50;;;;;;5026728;28;20029;-88
2021/01/24 12:08:01;;;;;;;19.75;11.35;;;5.80;99.10;;;;;;5028611;28;20049;-88
2021/01/24 12:10:27;;;;;;;18.08;12.10;;;6.10;99.90;;;;;;5026550;28;20041;-88
2021/01/24 12:12:56;;;;;;;14.93;11.45;;;6.50;99.90;;;;;;5028324;28;20026;-91
2021/01/24 12:15:27;;;;;;;15.35;11.18;;;6.90;99.50;;;;;;5010482;28;20108;-89
2021/01/24 12:17:55;;;;;;;18.58;12.23;;;7.20;99.20;;;;;;5027680;28;20029;-86
2021/01/24 12:20:29;;;;;;;18.27;11.80;;;7.40;98.70;;;;;;5026730;28;20045;-87
2021/01/24 12:22:55;;;;;;;19.70;12.93;;;7.50;98.00;;;;;;5026609;28;20276;-89
2021/01/24 12:25:22;;;;;;;19.15;12.90;;;7.50;97.80;;;;;;5010798;28;20029;-90
2021/01/24 12:27:50;;;;;;;18.63;13.13;;;7.50;97.90;;;;;;5026888;28;20451;-87
2021/01/24 12:30:31;;;;;;;18.25;10.82;;;7.60;97.60;;;;;;5028046;28;20083;-85
2021/01/24 12:32:57;;;;;;;20.05;12.15;;;7.60;97.20;;;;;;5028369;28;20021;-87
2021/01/24 12:35:23;;;;;;;20.40;13.02;;;7.60;97.20;;;;;;5028027;28;20021;-88
2021/01/24 12:37:53;;;;;;;18.77;13.48;;;7.60;97.10;;;;;;5028420;28;20032;-84
2021/01/24 12:40:20;;;;;;;20.88;12.85;;;7.60;96.80;;;;;;5026485;28;20114;-89
2021/01/24 12:42:48;;;;;;;15.48;11.13;;;7.50;96.50;;;;;;5026504;28;20036;-88
2021/01/24 12:45:15;;;;;;;15.73;11.85;;;7.40;96.40;;;;;;5026960;28;20036;-86
2021/01/24 12:47:40;;;;;;;16.02;11.90;;;7.30;96.60;;;;;;5026807;28;20037;-84
2021/01/24 12:50:07;;;;;;;14.82;11.45;;;7.30;96.70;;;;;;5026477;28;20094;-89
2021/01/24 12:52:35;;;;;;;16.40;11.15;;;7.20;96.40;;;;;;5027808;28;20403;-85
2021/01/24 12:55:07;;;;;;;16.20;11.68;;;6.90;96.40;;;;;;5020517;28;20018;-85